Time;durP1;ratioP1;P1;durP2;ratioP2;P2;SDS_P1;SDS_P2;PMS_P1;PMS_P2;Temp;Humidity;BMP_temperature;BMP_pressure;BME280_temperature;BME280_humidity;BME280_pressure;Samples;Min_cycle;Max_cycle;Signal;HPM_P1;HPM_P2
2021/12/19 00:00:20;;;;;;;;;43.25;35.75;;;;;;;;5099255;27;45359;-55
2021/12/19 00:10:26;;;;;;;;;37.50;33.00;;;;;;;;5098779;27;45269;-54
2021/12/19 00:12:52;;;;;;;;;33.00;30.00;;;;;;;;5099019;27;45382;-52
2021/12/19 00:15:18;;;;;;;;;40.50;29.75;;;;;;;;5099112;27;45268;-50
2021/12/19 00:17:43;;;;;;;;;34.25;32.50;;;;;;;;5099229;27;45475;-56
2021/12/19 00:20:08;;;;;;;;;35.75;32.50;;;;;;;;5098493;27;45229;-50
2021/12/19 00:22:33;;;;;;;;;34.25;26.50;;;;;;;;5098843;27;45282;-53
2021/12/19 00:24:59;;;;;;;;;35.50;34.50;;;;;;;;5097962;27;45346;-54
2021/12/19 00:27:24;;;;;;;;;30.25;25.00;;;;;;;;5098958;27;45205;-52
2021/12/19 00:29:49;;;;;;;;;40.00;32.25;;;;;;;;5098512;27;45425;-53
2021/12/19 00:32:15;;;;;;;;;32.00;28.75;;;;;;;;5098811;27;45290;-54
2021/12/19 00:34:41;;;;;;;;;32.75;30.25;;;;;;;;5098816;27;45403;-56
2021/12/19 00:37:06;;;;;;;;;38.50;33.50;;;;;;;;5098994;27;45527;-53
2021/12/19 00:39:31;;;;;;;;;40.50;32.00;;;;;;;;5098424;27;45505;-54
2021/12/19 00:41:56;;;;;;;;;36.25;31.25;;;;;;;;5098269;27;45301;-53
2021/12/19 00:44:24;;;;;;;;;39.75;34.75;;;;;;;;5098878;27;45422;-51
2021/12/19 00:46:52;;;;;;;;;39.00;33.25;;;;;;;;5098769;27;45469;-53
2021/12/19 00:49:18;;;;;;;;;30.25;27.75;;;;;;;;5098380;27;46209;-51
2021/12/19 00:51:44;;;;;;;;;29.00;26.50;;;;;;;;5098645;27;45412;-54
2021/12/19 00:54:10;;;;;;;;;39.75;30.75;;;;;;;;5098305;27;45295;-51
2021/12/19 00:56:39;;;;;;;;;37.50;32.75;;;;;;;;5098626;27;45603;-52
2021/12/19 00:59:05;;;;;;;;;32.50;30.50;;;;;;;;5098424;27;46163;-54
2021/12/19 01:01:30;;;;;;;;;42.00;32.50;;;;;;;;5098257;27;45380;-54
2021/12/19 01:03:56;;;;;;;;;36.50;30.75;;;;;;;;5097890;27;45243;-53
2021/12/19 01:06:21;;;;;;;;;30.50;24.25;;;;;;;;5098518;27;45675;-56
2021/12/19 01:08:47;;;;;;;;;34.25;32.50;;;;;;;;5098270;27;46091;-54
2021/12/19 01:11:12;;;;;;;;;34.00;31.00;;;;;;;;5098161;27;45233;-55
2021/12/19 01:13:37;;;;;;;;;23.00;22.00;;;;;;;;5098127;27;45178;-54
2021/12/19 01:16:03;;;;;;;;;36.25;30.00;;;;;;;;5097283;27;45181;-53
2021/12/19 01:18:28;;;;;;;;;32.00;27.00;;;;;;;;5098103;27;45259;-51
2021/12/19 01:20:54;;;;;;;;;34.75;26.00;;;;;;;;5098219;27;45207;-55
2021/12/19 01:23:21;;;;;;;;;30.75;28.25;;;;;;;;5098241;27;45212;-51
2021/12/19 01:25:47;;;;;;;;;28.00;22.25;;;;;;;;5095657;27;45564;-53
2021/12/19 01:28:12;;;;;;;;;24.50;21.75;;;;;;;;5097925;27;45847;-54
2021/12/19 01:30:37;;;;;;;;;29.50;27.75;;;;;;;;5098011;27;45358;-52
2021/12/19 01:33:03;;;;;;;;;28.75;25.00;;;;;;;;5098286;27;45404;-56
2021/12/19 01:35:28;;;;;;;;;29.50;27.25;;;;;;;;5097950;27;45356;-48
2021/12/19 01:37:53;;;;;;;;;26.25;23.50;;;;;;;;5097153;27;45372;-50
2021/12/19 01:40:19;;;;;;;;;27.25;25.00;;;;;;;;5097992;27;45448;-54
2021/12/19 01:42:46;;;;;;;;;29.75;24.25;;;;;;;;5098173;27;45460;-53
2021/12/19 01:45:13;;;;;;;;;36.00;29.50;;;;;;;;5097972;27;45411;-56
2021/12/19 01:47:38;;;;;;;;;28.75;25.75;;;;;;;;5095998;27;46637;-55
2021/12/19 01:50:05;;;;;;;;;25.25;21.75;;;;;;;;5097716;27;45274;-52
2021/12/19 01:52:30;;;;;;;;;39.00;33.00;;;;;;;;5098047;27;45235;-56
2021/12/19 01:54:56;;;;;;;;;28.50;22.25;;;;;;;;5097718;27;45298;-56
2021/12/19 01:57:22;;;;;;;;;28.25;24.75;;;;;;;;5096320;27;47228;-54
2021/12/19 01:59:47;;;;;;;;;26.25;21.75;;;;;;;;5097255;27;45303;-56
2021/12/19 02:02:13;;;;;;;;;25.00;21.00;;;;;;;;5097799;27;45313;-52
2021/12/19 02:04:38;;;;;;;;;32.75;27.25;;;;;;;;5097755;27;45365;-53
2021/12/19 02:07:03;;;;;;;;;27.25;24.00;;;;;;;;5097486;27;45603;-56
2021/12/19 02:09:28;;;;;;;;;31.00;25.75;;;;;;;;5097124;27;45254;-54
2021/12/19 02:11:54;;;;;;;;;33.25;31.00;;;;;;;;5096244;27;45411;-51
2021/12/19 02:14:20;;;;;;;;;23.25;22.50;;;;;;;;5097362;27;45594;-52
2021/12/19 02:16:45;;;;;;;;;30.25;23.50;;;;;;;;5097187;27;45405;-50
2021/12/19 02:19:11;;;;;;;;;28.75;27.50;;;;;;;;5097294;27;45333;-54
2021/12/19 02:21:37;;;;;;;;;31.75;27.50;;;;;;;;5096863;27;45221;-53
2021/12/19 02:24:04;;;;;;;;;32.75;26.00;;;;;;;;5097396;27;45446;-55
2021/12/19 02:26:29;;;;;;;;;34.00;25.25;;;;;;;;5095948;27;45591;-52
2021/12/19 02:28:54;;;;;;;;;28.50;26.25;;;;;;;;5097155;27;45357;-55
2021/12/19 02:31:21;;;;;;;;;28.75;23.75;;;;;;;;5096866;27;45948;-50
2021/12/19 02:34:00;;;;;;;;;27.50;26.25;;;;;;;;5097304;27;45470;-54
2021/12/19 02:36:41;;;;;;;;;26.50;23.75;;;;;;;;5095355;27;47783;-49
2021/12/19 02:49:58;;;;;;;;;22.50;18.00;;;;;;;;5096741;27;45357;-55
2021/12/19 02:52:23;;;;;;;;;27.00;24.00;;;;;;;;5096978;27;45362;-51
2021/12/19 02:54:49;;;;;;;;;22.00;19.25;;;;;;;;5096403;27;45199;-50
2021/12/19 02:57:14;;;;;;;;;25.75;22.75;;;;;;;;5096819;27;45696;-55
2021/12/19 02:59:39;;;;;;;;;20.50;17.50;;;;;;;;5090619;27;45298;-51
2021/12/19 03:02:04;;;;;;;;;30.00;25.25;;;;;;;;5076493;28;45288;-51
2021/12/19 03:04:30;;;;;;;;;23.25;21.50;;;;;;;;5076042;27;45354;-52
2021/12/19 03:06:55;;;;;;;;;22.75;19.25;;;;;;;;5076430;28;46059;-51
2021/12/19 03:12:23;;;;;;;;;21.50;20.50;;;;;;;;5076277;28;45389;-53
2021/12/19 03:20:16;;;;;;;;;27.75;24.50;;;;;;;;5076270;28;45342;-49
2021/12/19 03:22:41;;;;;;;;;23.75;21.75;;;;;;;;5074819;28;45355;-51
2021/12/19 03:25:06;;;;;;;;;21.00;19.00;;;;;;;;5076138;28;45505;-53
2021/12/19 03:27:32;;;;;;;;;22.00;18.75;;;;;;;;5075324;27;46604;-51
2021/12/19 03:29:57;;;;;;;;;23.50;20.75;;;;;;;;5076223;28;45420;-55
2021/12/19 03:32:24;;;;;;;;;19.50;17.50;;;;;;;;5076296;27;45370;-47
2021/12/19 03:34:50;;;;;;;;;23.50;20.50;;;;;;;;5076013;27;45572;-56
2021/12/19 03:37:15;;;;;;;;;21.75;17.00;;;;;;;;5075026;28;46068;-53
2021/12/19 03:40:21;;;;;;;;;26.00;23.25;;;;;;;;5079496;28;45318;-55
2021/12/19 03:42:32;;;;;;;;;20.00;18.00;;;;;;;;5077353;28;45240;-51
2021/12/19 03:44:57;;;;;;;;;13.75;11.75;;;;;;;;5079367;27;45414;-54
2021/12/19 03:47:22;;;;;;;;;23.00;22.00;;;;;;;;5079345;27;46056;-51
2021/12/19 03:49:48;;;;;;;;;24.25;23.00;;;;;;;;5078723;28;45420;-52
2021/12/19 03:52:13;;;;;;;;;23.50;22.50;;;;;;;;5079408;27;45448;-54
2021/12/19 03:54:38;;;;;;;;;22.00;22.00;;;;;;;;5079041;27;45423;-50
2021/12/19 03:57:04;;;;;;;;;27.00;23.75;;;;;;;;5079129;28;45495;-56
2021/12/19 03:59:31;;;;;;;;;23.00;21.75;;;;;;;;5078729;28;45378;-56
2021/12/19 04:01:56;;;;;;;;;29.50;24.00;;;;;;;;5079314;27;45525;-55
2021/12/19 04:04:21;;;;;;;;;24.00;21.25;;;;;;;;5079227;27;45351;-53
2021/12/19 04:06:46;;;;;;;;;24.25;22.50;;;;;;;;5079024;28;46065;-51
2021/12/19 04:09:12;;;;;;;;;25.50;23.25;;;;;;;;5077638;28;45343;-49
2021/12/19 04:11:37;;;;;;;;;23.25;22.00;;;;;;;;5078431;27;45535;-55
2021/12/19 04:14:02;;;;;;;;;24.75;22.75;;;;;;;;5078854;28;45501;-56
2021/12/19 04:16:28;;;;;;;;;24.00;21.25;;;;;;;;5079002;27;46083;-53
2021/12/19 04:18:53;;;;;;;;;24.00;21.50;;;;;;;;5078912;27;45295;-53
2021/12/19 04:21:18;;;;;;;;;27.50;22.00;;;;;;;;5078550;28;45218;-54
2021/12/19 04:23:43;;;;;;;;;22.00;21.00;;;;;;;;5078917;28;45333;-53
2021/12/19 04:26:09;;;;;;;;;20.75;18.25;;;;;;;;5078755;27;45421;-50
2021/12/19 04:28:34;;;;;;;;;18.00;18.00;;;;;;;;5078790;28;45334;-54
2021/12/19 04:31:00;;;;;;;;;21.75;16.50;;;;;;;;5078992;27;45379;-52
2021/12/19 04:33:28;;;;;;;;;19.75;18.00;;;;;;;;5078299;27;45180;-50
2021/12/19 04:35:59;;;;;;;;;24.25;19.25;;;;;;;;5078318;28;46640;-56
2021/12/19 04:44:34;;;;;;;;;18.75;18.25;;;;;;;;5078110;28;45315;-55
2021/12/19 05:00:22;;;;;;;;;22.25;20.25;;;;;;;;5078044;27;45294;-52
2021/12/19 05:15:53;;;;;;;;;29.00;22.75;;;;;;;;5077557;28;45212;-53
2021/12/19 05:18:21;;;;;;;;;21.75;20.00;;;;;;;;5076825;27;45357;-54
2021/12/19 05:21:07;;;;;;;;;21.00;21.00;;;;;;;;5076587;28;45297;-49
2021/12/19 05:23:51;;;;;;;;;21.25;19.25;;;;;;;;5077910;28;45364;-50
2021/12/19 05:26:17;;;;;;;;;17.00;17.00;;;;;;;;5077569;27;45577;-53
2021/12/19 05:28:42;;;;;;;;;20.25;18.00;;;;;;;;5076963;27;46483;-53
2021/12/19 05:31:08;;;;;;;;;15.25;13.25;;;;;;;;5077647;28;45251;-52
2021/12/19 05:33:34;;;;;;;;;22.75;19.50;;;;;;;;5077895;28;45328;-52
2021/12/19 05:46:39;;;;;;;;;15.50;13.00;;;;;;;;5077641;28;45283;-50
2021/12/19 05:49:06;;;;;;;;;22.25;20.00;;;;;;;;5076777;28;46711;-54
2021/12/19 05:51:32;;;;;;;;;16.50;14.75;;;;;;;;5075940;28;45278;-55
2021/12/19 05:53:58;;;;;;;;;21.50;16.50;;;;;;;;5076062;28;45299;-51
2021/12/19 05:56:23;;;;;;;;;13.00;13.00;;;;;;;;5077261;28;45528;-52
2021/12/19 05:58:48;;;;;;;;;16.75;15.75;;;;;;;;5077118;28;46219;-51
2021/12/19 06:01:13;;;;;;;;;12.25;11.50;;;;;;;;5076768;27;45202;-54
2021/12/19 06:03:38;;;;;;;;;12.75;9.75;;;;;;;;5077455;28;45203;-54
2021/12/19 06:06:04;;;;;;;;;13.00;13.00;;;;;;;;5076133;28;45585;-52
2021/12/19 06:08:29;;;;;;;;;11.25;9.25;;;;;;;;5077147;28;46156;-52
2021/12/19 06:10:54;;;;;;;;;16.00;13.00;;;;;;;;5076473;27;45397;-55
2021/12/19 06:13:19;;;;;;;;;12.25;11.50;;;;;;;;5077169;28;45299;-52
2021/12/19 06:15:45;;;;;;;;;10.50;10.00;;;;;;;;5077125;28;45439;-51
2021/12/19 06:18:10;;;;;;;;;17.25;17.25;;;;;;;;5076873;28;46375;-54
2021/12/19 06:20:35;;;;;;;;;12.00;11.25;;;;;;;;5077155;28;45180;-53
2021/12/19 06:23:00;;;;;;;;;17.50;13.50;;;;;;;;5076508;28;45218;-51
2021/12/19 06:25:26;;;;;;;;;15.75;15.75;;;;;;;;5075702;28;45243;-54
2021/12/19 06:27:52;;;;;;;;;14.50;11.25;;;;;;;;5076852;27;45322;-54
2021/12/19 06:30:17;;;;;;;;;14.00;13.00;;;;;;;;5076967;27;45351;-55
2021/12/19 06:32:42;;;;;;;;;15.50;13.75;;;;;;;;5076941;28;45413;-56
2021/12/19 06:35:11;;;;;;;;;15.00;15.00;;;;;;;;5076342;28;45342;-51
2021/12/19 06:37:38;;;;;;;;;17.25;16.00;;;;;;;;5076704;28;46425;-51
2021/12/19 06:40:07;;;;;;;;;15.50;15.50;;;;;;;;5076755;27;45319;-54
2021/12/19 06:42:32;;;;;;;;;20.50;13.25;;;;;;;;5076694;27;45377;-53
2021/12/19 06:44:58;;;;;;;;;15.00;12.75;;;;;;;;5076126;27;45511;-54
2021/12/19 06:47:23;;;;;;;;;20.00;15.75;;;;;;;;5076656;27;46122;-54
2021/12/19 06:49:48;;;;;;;;;12.75;11.50;;;;;;;;5075364;28;45316;-55
2021/12/19 06:52:13;;;;;;;;;13.25;13.25;;;;;;;;5076545;28;45364;-53
2021/12/19 06:54:39;;;;;;;;;16.00;12.75;;;;;;;;5076462;28;45305;-52
2021/12/19 06:57:04;;;;;;;;;14.25;14.00;;;;;;;;5076011;28;46177;-55
2021/12/19 06:59:29;;;;;;;;;13.75;12.00;;;;;;;;5076544;28;45306;-54
2021/12/19 07:01:54;;;;;;;;;18.75;15.25;;;;;;;;5076571;27;45248;-52
2021/12/19 07:04:20;;;;;;;;;12.25;12.25;;;;;;;;5076373;28;45352;-52
2021/12/19 07:06:45;;;;;;;;;16.25;14.25;;;;;;;;5075900;28;46316;-51
2021/12/19 07:09:10;;;;;;;;;15.50;13.00;;;;;;;;5076406;28;45328;-56
2021/12/19 07:11:35;;;;;;;;;19.00;13.75;;;;;;;;5076246;28;45426;-52
2021/12/19 07:14:00;;;;;;;;;13.75;11.50;;;;;;;;5078864;28;45582;-50
2021/12/19 07:16:26;;;;;;;;;14.25;12.75;;;;;;;;5079801;28;46198;-52
2021/12/19 07:18:51;;;;;;;;;13.25;12.75;;;;;;;;5079218;28;45260;-52
2021/12/19 07:21:16;;;;;;;;;17.00;12.00;;;;;;;;5080035;28;45327;-56
2021/12/19 07:23:41;;;;;;;;;14.50;13.50;;;;;;;;5079815;28;45224;-55
2021/12/19 07:26:06;;;;;;;;;15.25;11.50;;;;;;;;5079485;28;45320;-53
2021/12/19 07:28:32;;;;;;;;;15.75;10.50;;;;;;;;5078952;28;45288;-53
2021/12/19 07:30:57;;;;;;;;;14.50;11.50;;;;;;;;5095428;27;45181;-54
2021/12/19 07:33:23;;;;;;;;;12.00;10.50;;;;;;;;5079595;27;45187;-53
2021/12/19 07:35:49;;;;;;;;;12.25;10.25;;;;;;;;5079153;27;46354;-53
2021/12/19 07:38:26;;;;;;;;;11.50;10.50;;;;;;;;5079517;27;45361;-50
2021/12/19 07:40:52;;;;;;;;;12.50;10.75;;;;;;;;5079022;28;45382;-53
2021/12/19 07:43:17;;;;;;;;;12.00;11.25;;;;;;;;5079418;27;45409;-51
2021/12/19 07:45:43;;;;;;;;;18.75;14.75;;;;;;;;5079244;28;45270;-50
2021/12/19 07:48:08;;;;;;;;;12.00;10.25;;;;;;;;5079052;27;45432;-53
2021/12/19 07:50:34;;;;;;;;;15.50;11.00;;;;;;;;5078926;27;45395;-53
2021/12/19 07:52:59;;;;;;;;;11.25;11.25;;;;;;;;5079449;28;45601;-53
2021/12/19 07:55:25;;;;;;;;;12.75;12.75;;;;;;;;5078981;27;45981;-54
2021/12/19 07:57:50;;;;;;;;;12.75;9.00;;;;;;;;5079097;27;45255;-50
2021/12/19 08:00:16;;;;;;;;;10.50;10.50;;;;;;;;5079207;27;45398;-50
2021/12/19 08:02:42;;;;;;;;;15.00;11.50;;;;;;;;5078790;27;45381;-54
2021/12/19 08:05:08;;;;;;;;;10.50;10.50;;;;;;;;5078833;27;47318;-55
2021/12/19 08:07:33;;;;;;;;;11.50;10.00;;;;;;;;5078771;27;45368;-54
2021/12/19 08:10:14;;;;;;;;;10.75;8.00;;;;;;;;5079046;27;45371;-54
2021/12/19 08:12:39;;;;;;;;;11.50;10.00;;;;;;;;5078725;27;45320;-52
2021/12/19 08:15:06;;;;;;;;;11.75;10.75;;;;;;;;5078484;27;45469;-53
2021/12/19 08:17:31;;;;;;;;;16.25;13.50;;;;;;;;5078648;27;45451;-46
2021/12/19 08:19:57;;;;;;;;;14.75;12.75;;;;;;;;5078957;27;45448;-51
2021/12/19 08:22:22;;;;;;;;;13.25;12.75;;;;;;;;5078873;28;45652;-52
2021/12/19 08:24:49;;;;;;;;;12.50;11.00;;;;;;;;5092609;27;46168;-50
2021/12/19 08:27:15;;;;;;;;;16.50;12.75;;;;;;;;5078728;28;45427;-52
2021/12/19 08:29:40;;;;;;;;;13.75;12.00;;;;;;;;5078838;28;45259;-53
2021/12/19 08:32:05;;;;;;;;;11.00;11.00;;;;;;;;5078702;28;45404;-49
2021/12/19 08:34:31;;;;;;;;;11.50;11.25;;;;;;;;5077992;28;45352;-53
2021/12/19 08:36:56;;;;;;;;;14.75;13.75;;;;;;;;5078515;27;45307;-51
2021/12/19 08:39:21;;;;;;;;;16.25;16.00;;;;;;;;5078491;28;45331;-55
2021/12/19 08:41:47;;;;;;;;;14.75;12.00;;;;;;;;5078547;28;45234;-54
2021/12/19 08:44:12;;;;;;;;;14.00;12.00;;;;;;;;5078275;27;46220;-52
2021/12/19 08:46:38;;;;;;;;;10.25;10.25;;;;;;;;5077948;28;45318;-54
2021/12/19 08:49:04;;;;;;;;;14.75;11.50;;;;;;;;5078459;27;45321;-56
2021/12/19 08:51:31;;;;;;;;;11.50;11.00;;;;;;;;5078143;27;45413;-54
2021/12/19 08:53:56;;;;;;;;;16.75;13.75;;;;;;;;5078118;27;45405;-54
2021/12/19 08:56:22;;;;;;;;;16.75;14.50;;;;;;;;5077500;28;45241;-54
2021/12/19 08:58:47;;;;;;;;;18.25;16.75;;;;;;;;5078303;28;45152;-53
2021/12/19 09:01:12;;;;;;;;;11.50;11.50;;;;;;;;5078230;27;45182;-51
2021/12/19 09:03:37;;;;;;;;;13.25;13.25;;;;;;;;5093819;27;45425;-52
2021/12/19 09:06:04;;;;;;;;;18.25;16.75;;;;;;;;5078004;28;45324;-51
2021/12/19 09:08:29;;;;;;;;;15.25;14.75;;;;;;;;5077621;27;45237;-53
2021/12/19 09:10:55;;;;;;;;;18.25;16.25;;;;;;;;5077667;27;45215;-52
2021/12/19 09:13:20;;;;;;;;;11.00;11.00;;;;;;;;5077806;28;45240;-53
2021/12/19 09:15:46;;;;;;;;;14.00;13.75;;;;;;;;5077627;28;45263;-51
2021/12/19 09:18:11;;;;;;;;;19.75;15.00;;;;;;;;5077435;27;45208;-53
2021/12/19 09:20:36;;;;;;;;;15.50;12.25;;;;;;;;5077962;27;45220;-50
2021/12/19 09:23:02;;;;;;;;;16.00;11.00;;;;;;;;5077795;28;46081;-51
2021/12/19 09:25:27;;;;;;;;;15.50;11.50;;;;;;;;5077631;27;45513;-51
2021/12/19 09:27:52;;;;;;;;;14.50;14.50;;;;;;;;5077893;28;45404;-55
2021/12/19 09:30:18;;;;;;;;;14.00;12.75;;;;;;;;5077362;28;45639;-49
2021/12/19 09:32:43;;;;;;;;;16.00;15.25;;;;;;;;5077291;27;45490;-55
2021/12/19 09:35:08;;;;;;;;;14.75;14.25;;;;;;;;5077147;28;45468;-54
2021/12/19 09:37:36;;;;;;;;;16.50;15.75;;;;;;;;5077504;27;45380;-49
2021/12/19 09:40:10;;;;;;;;;19.75;15.00;;;;;;;;5077233;27;45507;-50
2021/12/19 09:42:37;;;;;;;;;11.50;11.50;;;;;;;;5077378;27;46219;-53
2021/12/19 09:45:03;;;;;;;;;17.25;13.75;;;;;;;;5077318;27;45217;-54
2021/12/19 09:47:28;;;;;;;;;12.75;12.75;;;;;;;;5077275;27;45272;-54
2021/12/19 09:49:54;;;;;;;;;19.50;16.00;;;;;;;;5077281;28;45466;-55
2021/12/19 09:52:20;;;;;;;;;12.75;10.00;;;;;;;;5076796;27;46062;-54
2021/12/19 09:54:45;;;;;;;;;12.25;11.75;;;;;;;;5077159;28;45453;-53
2021/12/19 09:57:10;;;;;;;;;14.75;12.50;;;;;;;;5077458;28;45357;-53
2021/12/19 09:59:35;;;;;;;;;15.75;12.75;;;;;;;;5077226;28;45389;-53
2021/12/19 10:02:00;;;;;;;;;19.75;16.50;;;;;;;;5076584;28;45842;-56
2021/12/19 10:04:33;;;;;;;;;13.25;12.75;;;;;;;;5076891;28;45325;-56
2021/12/19 10:07:03;;;;;;;;;5.00;3.00;;;;;;;;5077301;27;45284;-54
2021/12/19 10:09:28;;;;;;;;;17.50;16.00;;;;;;;;5075535;28;45580;-54
2021/12/19 10:11:59;;;;;;;;;17.75;17.50;;;;;;;;5076556;28;45377;-54
2021/12/19 10:14:29;;;;;;;;;23.75;19.00;;;;;;;;5076376;27;45429;-56
2021/12/19 10:17:00;;;;;;;;;19.00;17.75;;;;;;;;5076841;28;45381;-50
2021/12/19 10:19:45;;;;;;;;;18.75;16.75;;;;;;;;5077001;27;45373;-51
2021/12/19 10:22:23;;;;;;;;;16.50;16.25;;;;;;;;5076612;27;46024;-50
2021/12/19 10:24:49;;;;;;;;;20.00;18.25;;;;;;;;5076149;27;45322;-51
2021/12/19 10:27:30;;;;;;;;;24.75;21.25;;;;;;;;5076790;28;45385;-53
2021/12/19 10:29:55;;;;;;;;;17.00;17.00;;;;;;;;5076795;27;45306;-52
2021/12/19 10:32:20;;;;;;;;;19.00;17.25;;;;;;;;5076419;28;46122;-53
2021/12/19 10:34:45;;;;;;;;;16.50;15.50;;;;;;;;5076350;28;45560;-54
2021/12/19 10:37:11;;;;;;;;;21.25;21.25;;;;;;;;5076343;28;45404;-55
2021/12/19 10:39:37;;;;;;;;;23.25;22.25;;;;;;;;5076608;28;45895;-50
2021/12/19 10:42:02;;;;;;;;;22.25;19.75;;;;;;;;5076294;28;46043;-53
2021/12/19 10:47:19;;;;;;;;;19.00;17.75;;;;;;;;5075024;28;45350;-52
2021/12/19 10:49:46;;;;;;;;;21.00;17.00;;;;;;;;5076657;28;45216;-52
2021/12/19 10:52:11;;;;;;;;;17.50;17.50;;;;;;;;5075983;27;45288;-49
2021/12/19 10:54:54;;;;;;;;;17.25;17.25;;;;;;;;5076235;28;45454;-51
2021/12/19 10:57:19;;;;;;;;;21.25;16.75;;;;;;;;5075818;27;45238;-53
2021/12/19 10:59:45;;;;;;;;;20.25;17.75;;;;;;;;5076500;28;45240;-53
2021/12/19 11:02:10;;;;;;;;;25.75;24.00;;;;;;;;5076279;28;46121;-50
2021/12/19 11:04:36;;;;;;;;;23.00;22.25;;;;;;;;5076311;28;45284;-56
2021/12/19 11:07:02;;;;;;;;;17.75;17.75;;;;;;;;5076248;27;45267;-54
2021/12/19 11:09:28;;;;;;;;;18.00;18.00;;;;;;;;5075788;27;45502;-55
2021/12/19 11:11:53;;;;;;;;;22.25;22.25;;;;;;;;5075590;27;45356;-53
2021/12/19 11:14:20;;;;;;;;;26.75;21.50;;;;;;;;5091598;27;45283;-53
2021/12/19 11:16:46;;;;;;;;;25.00;25.00;;;;;;;;5076180;28;45383;-53
2021/12/19 11:19:12;;;;;;;;;18.25;18.25;;;;;;;;5075599;27;45424;-53
2021/12/19 11:21:38;;;;;;;;;23.75;21.75;;;;;;;;5075769;27;45356;-55
2021/12/19 11:24:05;;;;;;;;;27.50;21.00;;;;;;;;5091370;27;45442;-56
2021/12/19 11:26:31;;;;;;;;;21.00;21.00;;;;;;;;5075888;27;45292;-50
2021/12/19 11:28:56;;;;;;;;;22.25;18.75;;;;;;;;5075947;27;45211;-53
2021/12/19 11:31:23;;;;;;;;;22.50;22.50;;;;;;;;5075349;28;46268;-52
2021/12/19 11:34:03;;;;;;;;;24.75;21.50;;;;;;;;5075769;27;45423;-53
2021/12/19 11:36:34;;;;;;;;;27.00;20.00;;;;;;;;5075700;28;45370;-54
2021/12/19 11:39:02;;;;;;;;;24.75;20.75;;;;;;;;5075790;27;45564;-51
2021/12/19 11:41:27;;;;;;;;;20.75;20.75;;;;;;;;5075132;27;45903;-53
2021/12/19 11:43:55;;;;;;;;;20.25;18.75;;;;;;;;5075562;28;45338;-52
2021/12/19 11:46:41;;;;;;;;;24.50;23.75;;;;;;;;5074647;28;45240;-52
2021/12/19 11:49:18;;;;;;;;;24.25;24.25;;;;;;;;5075756;27;45252;-53
2021/12/19 11:51:43;;;;;;;;;25.25;22.75;;;;;;;;5074028;28;47260;-55
2021/12/19 11:54:13;;;;;;;;;30.50;26.50;;;;;;;;5075092;27;45363;-56
2021/12/19 11:56:38;;;;;;;;;28.50;22.25;;;;;;;;5075682;28;45252;-54
2021/12/19 11:59:16;;;;;;;;;24.25;24.25;;;;;;;;5076756;28;45161;-52
2021/12/19 12:01:42;;;;;;;;;29.75;24.50;;;;;;;;5079077;27;46614;-55
2021/12/19 12:04:13;;;;;;;;;32.25;28.50;;;;;;;;5094241;27;46069;-55
2021/12/19 12:06:40;;;;;;;;;26.25;23.25;;;;;;;;5079068;27;45302;-54
2021/12/19 12:09:06;;;;;;;;;29.75;27.00;;;;;;;;5078964;27;45226;-55
2021/12/19 12:11:32;;;;;;;;;24.00;23.00;;;;;;;;5078410;28;46183;-54
2021/12/19 12:14:17;;;;;;;;;26.75;25.00;;;;;;;;5078500;27;45476;-49
2021/12/19 12:16:50;;;;;;;;;26.50;26.25;;;;;;;;5078597;27;45362;-53
2021/12/19 12:19:15;;;;;;;;;26.50;20.25;;;;;;;;5078640;27;45321;-56
2021/12/19 12:21:46;;;;;;;;;23.00;20.50;;;;;;;;5078537;28;46435;-52
2021/12/19 12:24:11;;;;;;;;;28.00;25.25;;;;;;;;5078490;27;45344;-54
2021/12/19 12:26:46;;;;;;;;;19.00;19.00;;;;;;;;5078284;28;45275;-55
2021/12/19 12:29:12;;;;;;;;;26.50;21.75;;;;;;;;5078740;27;45394;-53
2021/12/19 12:31:38;;;;;;;;;22.50;22.50;;;;;;;;5078416;28;46503;-55
2021/12/19 12:34:07;;;;;;;;;28.00;22.50;;;;;;;;5078628;27;45795;-54
2021/12/19 12:36:32;;;;;;;;;27.00;23.75;;;;;;;;5078113;27;45335;-57
2021/12/19 12:38:58;;;;;;;;;27.50;23.75;;;;;;;;5078512;28;45352;-52
2021/12/19 12:44:08;;;;;;;;;25.00;23.50;;;;;;;;5078465;27;45283;-53
2021/12/19 12:46:34;;;;;;;;;20.50;20.50;;;;;;;;5078366;27;45498;-56
2021/12/19 12:49:02;;;;;;;;;26.75;23.75;;;;;;;;5077751;28;45392;-54
2021/12/19 12:51:30;;;;;;;;;22.00;21.75;;;;;;;;5078091;27;46255;-53
2021/12/19 12:54:03;;;;;;;;;24.75;20.50;;;;;;;;5078252;28;45965;-55
2021/12/19 12:56:33;;;;;;;;;31.75;28.50;;;;;;;;5076902;28;45349;-54
2021/12/19 12:58:58;;;;;;;;;22.25;21.75;;;;;;;;5077879;28;45285;-53
2021/12/19 13:01:29;;;;;;;;;23.50;22.25;;;;;;;;5077946;27;46084;-55
2021/12/19 13:03:55;;;;;;;;;21.75;21.50;;;;;;;;5078208;27;45399;-50
2021/12/19 13:06:40;;;;;;;;;25.00;23.50;;;;;;;;5078152;27;45424;-54
2021/12/19 13:09:09;;;;;;;;;22.75;21.25;;;;;;;;5077629;27;45308;-55
2021/12/19 13:11:36;;;;;;;;;20.25;20.25;;;;;;;;5092512;27;46437;-53
2021/12/19 13:14:15;;;;;;;;;23.75;20.00;;;;;;;;5077816;27;45405;-55
2021/12/19 13:16:41;;;;;;;;;21.25;18.50;;;;;;;;5077725;27;45375;-54
2021/12/19 13:19:06;;;;;;;;;24.00;21.50;;;;;;;;5077808;27;45312;-53
2021/12/19 13:21:51;;;;;;;;;20.75;15.75;;;;;;;;5077356;28;45423;-51
2021/12/19 13:24:19;;;;;;;;;19.50;19.50;;;;;;;;5077807;27;45258;-52
2021/12/19 13:26:44;;;;;;;;;27.75;22.00;;;;;;;;5078045;27;45303;-55
2021/12/19 13:29:29;;;;;;;;;23.75;22.00;;;;;;;;5077678;28;45320;-50
2021/12/19 13:31:54;;;;;;;;;39.50;34.50;;;;;;;;5077114;27;45628;-56
2021/12/19 13:34:20;;;;;;;;;21.00;19.50;;;;;;;;5077386;28;45291;-53
2021/12/19 13:37:00;;;;;;;;;25.50;22.75;;;;;;;;5077738;28;45263;-58
2021/12/19 13:39:25;;;;;;;;;24.00;22.75;;;;;;;;5077699;27;45461;-52
2021/12/19 13:41:51;;;;;;;;;22.00;21.75;;;;;;;;5076941;28;45236;-49
2021/12/19 13:44:29;;;;;;;;;27.00;27.00;;;;;;;;5077245;28;45341;-55
2021/12/19 13:46:54;;;;;;;;;27.25;23.25;;;;;;;;5077622;27;45338;-53
2021/12/19 13:49:20;;;;;;;;;25.00;21.25;;;;;;;;5077404;28;45585;-54
2021/12/19 13:51:46;;;;;;;;;14.00;12.50;;;;;;;;5077149;28;45590;-53
2021/12/19 13:54:11;;;;;;;;;35.00;25.25;;;;;;;;5076869;27;45443;-56
2021/12/19 13:56:36;;;;;;;;;30.50;25.75;;;;;;;;5077272;28;45436;-53
2021/12/19 13:59:21;;;;;;;;;30.50;24.75;;;;;;;;5077140;27;45524;-53
2021/12/19 14:01:47;;;;;;;;;35.25;31.75;;;;;;;;5077039;27;45464;-53
2021/12/19 14:04:24;;;;;;;;;32.50;31.00;;;;;;;;5076501;27;45452;-54
2021/12/19 14:06:50;;;;;;;;;32.75;32.75;;;;;;;;5077038;27;45217;-56
2021/12/19 14:09:20;;;;;;;;;34.50;31.75;;;;;;;;5076908;27;45547;-52
2021/12/19 14:11:46;;;;;;;;;34.25;30.50;;;;;;;;5076574;27;46627;-53
2021/12/19 14:14:32;;;;;;;;;35.25;30.50;;;;;;;;5076847;28;45393;-52
2021/12/19 14:16:58;;;;;;;;;30.50;23.50;;;;;;;;5076490;27;45478;-50
2021/12/19 14:19:24;;;;;;;;;41.75;35.25;;;;;;;;5076861;27;45494;-50
2021/12/19 14:21:50;;;;;;;;;30.00;27.25;;;;;;;;5076783;27;45404;-53
2021/12/19 14:24:19;;;;;;;;;33.25;31.25;;;;;;;;5076597;27;45275;-53
2021/12/19 14:27:02;;;;;;;;;35.25;29.00;;;;;;;;5076224;28;45394;-52
2021/12/19 14:29:28;;;;;;;;;31.00;27.00;;;;;;;;5076679;27;45367;-53
2021/12/19 14:31:58;;;;;;;;;29.50;24.25;;;;;;;;5076075;27;46285;-56
2021/12/19 14:34:28;;;;;;;;;28.75;25.25;;;;;;;;5076399;27;45257;-54
2021/12/19 14:36:54;;;;;;;;;25.75;22.50;;;;;;;;5076520;27;45428;-52
2021/12/19 14:39:21;;;;;;;;;27.00;26.50;;;;;;;;5076146;28;45577;-55
2021/12/19 14:41:46;;;;;;;;;18.25;13.00;;;;;;;;5076241;27;45411;-53
2021/12/19 14:44:21;;;;;;;;;26.25;24.75;;;;;;;;5076499;27;45376;-54
2021/12/19 14:46:47;;;;;;;;;22.75;17.00;;;;;;;;5076555;27;45286;-55
2021/12/19 14:49:13;;;;;;;;;19.50;17.75;;;;;;;;5075903;28;45287;-52
2021/12/19 14:51:38;;;;;;;;;23.75;18.00;;;;;;;;5076218;27;46005;-54
2021/12/19 14:54:03;;;;;;;;;21.50;19.00;;;;;;;;5076423;27;45231;-55
2021/12/19 14:56:29;;;;;;;;;17.25;16.50;;;;;;;;5076440;27;45180;-54
2021/12/19 14:58:59;;;;;;;;;21.50;21.50;;;;;;;;5076145;27;45592;-54
2021/12/19 15:01:25;;;;;;;;;17.00;16.00;;;;;;;;5075852;27;45340;-54
2021/12/19 15:03:58;;;;;;;;;21.50;20.75;;;;;;;;5074352;28;45419;-57
2021/12/19 15:06:24;;;;;;;;;24.00;19.50;;;;;;;;5091992;27;45377;-53
2021/12/19 15:08:50;;;;;;;;;28.00;22.00;;;;;;;;5076002;27;45570;-53
2021/12/19 15:11:16;;;;;;;;;27.25;23.50;;;;;;;;5075134;27;46625;-55
2021/12/19 15:13:42;;;;;;;;;20.75;18.75;;;;;;;;5075964;27;45403;-55
2021/12/19 15:16:07;;;;;;;;;27.75;22.25;;;;;;;;5076136;27;45271;-54
2021/12/19 15:18:33;;;;;;;;;22.25;21.50;;;;;;;;5076240;28;45253;-51
2021/12/19 15:20:59;;;;;;;;;22.50;18.25;;;;;;;;5075560;27;46532;-53
2021/12/19 15:23:24;;;;;;;;;20.25;18.00;;;;;;;;5074330;28;45359;-49
2021/12/19 15:25:50;;;;;;;;;21.75;17.25;;;;;;;;5075982;27;45358;-52
2021/12/19 15:28:16;;;;;;;;;18.50;16.50;;;;;;;;5076100;28;45486;-50
2021/12/19 15:30:42;;;;;;;;;22.75;20.00;;;;;;;;5075986;27;46240;-52